sensor_id;sensor_type;location;lat;lon;timestamp;P1;durP1;ratioP1;P2;durP2;ratioP2
22780;SDS011;11557;50.884;4.322;2023-01-10T00:00:24;13.30;;;3.45;;
22780;SDS011;11557;50.884;4.322;2023-01-10T00:02:51;17.65;;;3.75;;
22780;SDS011;11557;50.884;4.322;2023-01-10T00:05:17;13.15;;;3.00;;
22780;SDS011;11557;50.884;4.322;2023-01-10T00:07:43;13.13;;;3.08;;
22780;SDS011;11557;50.884;4.322;2023-01-10T00:10:09;19.83;;;3.78;;
22780;SDS011;11557;50.884;4.322;2023-01-10T00:12:36;14.85;;;4.03;;
22780;SDS011;11557;50.884;4.322;2023-01-10T00:15:20;12.00;;;2.92;;
22780;SDS011;11557;50.884;4.322;2023-01-10T00:17:46;17.45;;;3.33;;
22780;SDS011;11557;50.884;4.322;2023-01-10T00:20:12;20.50;;;4.22;;
22780;SDS011;11557;50.884;4.322;2023-01-10T00:22:38;15.90;;;3.78;;
22780;SDS011;11557;50.884;4.322;2023-01-10T00:25:03;16.42;;;3.95;;
22780;SDS011;11557;50.884;4.322;2023-01-10T00:27:29;16.70;;;3.60;;
22780;SDS011;11557;50.884;4.322;2023-01-10T00:29:55;17.98;;;3.35;;
22780;SDS011;11557;50.884;4.322;2023-01-10T00:32:24;17.08;;;4.05;;
22780;SDS011;11557;50.884;4.322;2023-01-10T00:34:49;15.43;;;3.55;;
22780;SDS011;11557;50.884;4.322;2023-01-10T00:37:15;15.73;;;3.50;;
22780;SDS011;11557;50.884;4.322;2023-01-10T00:39:42;16.90;;;3.63;;
22780;SDS011;11557;50.884;4.322;2023-01-10T00:42:08;14.98;;;3.67;;
22780;SDS011;11557;50.884;4.322;2023-01-10T00:44:53;20.63;;;3.85;;
22780;SDS011;11557;50.884;4.322;2023-01-10T00:47:19;18.70;;;3.22;;
22780;SDS011;11557;50.884;4.322;2023-01-10T00:49:45;18.98;;;3.63;;
22780;SDS011;11557;50.884;4.322;2023-01-10T00:52:10;15.20;;;3.70;;
22780;SDS011;11557;50.884;4.322;2023-01-10T00:54:36;18.80;;;4.05;;
22780;SDS011;11557;50.884;4.322;2023-01-10T00:57:02;19.02;;;4.03;;
22780;SDS011;11557;50.884;4.322;2023-01-10T00:59:27;19.40;;;3.53;;
22780;SDS011;11557;50.884;4.322;2023-01-10T01:01:53;16.70;;;3.20;;
22780;SDS011;11557;50.884;4.322;2023-01-10T01:04:19;21.65;;;3.95;;
22780;SDS011;11557;50.884;4.322;2023-01-10T01:06:46;19.63;;;3.58;;
22780;SDS011;11557;50.884;4.322;2023-01-10T01:09:13;18.30;;;3.45;;
22780;SDS011;11557;50.884;4.322;2023-01-10T01:11:39;18.15;;;3.63;;
22780;SDS011;11557;50.884;4.322;2023-01-10T01:14:05;17.98;;;3.97;;
22780;SDS011;11557;50.884;4.322;2023-01-10T01:16:31;19.00;;;3.30;;
22780;SDS011;11557;50.884;4.322;2023-01-10T01:18:56;19.35;;;3.67;;
22780;SDS011;11557;50.884;4.322;2023-01-10T01:21:22;14.50;;;3.33;;
22780;SDS011;11557;50.884;4.322;2023-01-10T01:23:52;15.48;;;3.33;;
22780;SDS011;11557;50.884;4.322;2023-01-10T01:26:21;23.38;;;4.28;;
22780;SDS011;11557;50.884;4.322;2023-01-10T01:28:50;18.52;;;4.25;;
22780;SDS011;11557;50.884;4.322;2023-01-10T01:31:16;27.38;;;3.58;;
22780;SDS011;11557;50.884;4.322;2023-01-10T01:33:41;23.67;;;4.00;;
22780;SDS011;11557;50.884;4.322;2023-01-10T01:36:08;20.90;;;3.60;;
22780;SDS011;11557;50.884;4.322;2023-01-10T01:38:35;19.85;;;4.35;;
22780;SDS011;11557;50.884;4.322;2023-01-10T01:41:02;19.30;;;3.15;;
22780;SDS011;11557;50.884;4.322;2023-01-10T01:43:28;27.23;;;4.20;;
22780;SDS011;11557;50.884;4.322;2023-01-10T01:45:57;21.45;;;3.67;;
22780;SDS011;11557;50.884;4.322;2023-01-10T01:48:28;15.88;;;3.20;;
22780;SDS011;11557;50.884;4.322;2023-01-10T01:51:12;20.65;;;3.80;;
22780;SDS011;11557;50.884;4.322;2023-01-10T01:53:53;23.13;;;3.92;;
22780;SDS011;11557;50.884;4.322;2023-01-10T01:56:32;17.83;;;3.67;;
22780;SDS011;11557;50.884;4.322;2023-01-10T01:59:06;15.85;;;3.22;;
22780;SDS011;11557;50.884;4.322;2023-01-10T02:01:36;26.23;;;4.77;;
22780;SDS011;11557;50.884;4.322;2023-01-10T02:04:22;20.00;;;3.53;;
22780;SDS011;11557;50.884;4.322;2023-01-10T02:06:53;15.40;;;3.83;;
22780;SDS011;11557;50.884;4.322;2023-01-10T02:09:22;17.08;;;3.25;;
22780;SDS011;11557;50.884;4.322;2023-01-10T02:11:54;22.98;;;4.07;;
22780;SDS011;11557;50.884;4.322;2023-01-10T02:14:20;19.10;;;4.00;;
22780;SDS011;11557;50.884;4.322;2023-01-10T02:16:48;18.33;;;3.83;;
22780;SDS011;11557;50.884;4.322;2023-01-10T02:19:26;21.52;;;4.05;;
22780;SDS011;11557;50.884;4.322;2023-01-10T02:27:21;23.15;;;3.60;;
22780;SDS011;11557;50.884;4.322;2023-01-10T02:30:18;18.88;;;4.40;;
22780;SDS011;11557;50.884;4.322;2023-01-10T02:44:06;18.77;;;3.80;;
22780;SDS011;11557;50.884;4.322;2023-01-10T02:46:38;20.08;;;3.47;;
22780;SDS011;11557;50.884;4.322;2023-01-10T02:49:04;20.75;;;4.40;;
22780;SDS011;11557;50.884;4.322;2023-01-10T02:51:30;22.33;;;3.50;;
22780;SDS011;11557;50.884;4.322;2023-01-10T02:54:12;24.75;;;4.78;;
22780;SDS011;11557;50.884;4.322;2023-01-10T03:04:45;27.90;;;4.33;;
22780;SDS011;11557;50.884;4.322;2023-01-10T03:07:17;21.38;;;4.22;;
22780;SDS011;11557;50.884;4.322;2023-01-10T03:15:14;21.27;;;3.97;;
22780;SDS011;11557;50.884;4.322;2023-01-10T03:17:44;24.92;;;4.28;;
22780;SDS011;11557;50.884;4.322;2023-01-10T03:20:14;28.05;;;4.45;;
22780;SDS011;11557;50.884;4.322;2023-01-10T03:22:43;23.90;;;3.72;;
22780;SDS011;11557;50.884;4.322;2023-01-10T03:25:11;29.23;;;4.25;;
22780;SDS011;11557;50.884;4.322;2023-01-10T03:27:45;19.15;;;3.90;;
22780;SDS011;11557;50.884;4.322;2023-01-10T03:30:36;28.67;;;4.95;;
22780;SDS011;11557;50.884;4.322;2023-01-10T03:33:06;28.60;;;4.55;;
22780;SDS011;11557;50.884;4.322;2023-01-10T03:47:12;29.70;;;4.78;;
22780;SDS011;11557;50.884;4.322;2023-01-10T03:49:49;30.63;;;5.20;;
22780;SDS011;11557;50.884;4.322;2023-01-10T03:52:20;22.08;;;4.40;;
22780;SDS011;11557;50.884;4.322;2023-01-10T03:54:46;30.15;;;4.60;;
22780;SDS011;11557;50.884;4.322;2023-01-10T03:57:22;30.48;;;4.53;;
22780;SDS011;11557;50.884;4.322;2023-01-10T03:59:54;26.55;;;4.53;;
22780;SDS011;11557;50.884;4.322;2023-01-10T04:02:23;27.85;;;5.10;;
22780;SDS011;11557;50.884;4.322;2023-01-10T04:04:51;29.58;;;5.13;;
22780;SDS011;11557;50.884;4.322;2023-01-10T04:07:16;31.95;;;5.45;;
22780;SDS011;11557;50.884;4.322;2023-01-10T04:09:42;32.05;;;4.47;;
22780;SDS011;11557;50.884;4.322;2023-01-10T04:12:07;27.67;;;4.68;;
22780;SDS011;11557;50.884;4.322;2023-01-10T04:14:33;29.50;;;4.65;;
22780;SDS011;11557;50.884;4.322;2023-01-10T04:16:59;29.10;;;4.90;;
22780;SDS011;11557;50.884;4.322;2023-01-10T04:19:25;30.10;;;5.22;;
22780;SDS011;11557;50.884;4.322;2023-01-10T04:21:50;29.45;;;5.68;;
22780;SDS011;11557;50.884;4.322;2023-01-10T04:24:16;25.85;;;4.80;;
22780;SDS011;11557;50.884;4.322;2023-01-10T04:26:41;28.48;;;4.78;;
22780;SDS011;11557;50.884;4.322;2023-01-10T04:29:07;27.27;;;4.57;;
22780;SDS011;11557;50.884;4.322;2023-01-10T04:31:33;27.35;;;4.25;;
22780;SDS011;11557;50.884;4.322;2023-01-10T04:33:58;25.08;;;4.28;;
22780;SDS011;11557;50.884;4.322;2023-01-10T04:36:24;28.20;;;5.47;;
22780;SDS011;11557;50.884;4.322;2023-01-10T04:38:50;29.70;;;4.95;;
22780;SDS011;11557;50.884;4.322;2023-01-10T04:41:15;24.10;;;4.45;;
22780;SDS011;11557;50.884;4.322;2023-01-10T04:43:41;37.08;;;5.95;;
22780;SDS011;11557;50.884;4.322;2023-01-10T04:46:07;31.88;;;5.40;;
22780;SDS011;11557;50.884;4.322;2023-01-10T04:48:32;25.80;;;4.70;;
22780;SDS011;11557;50.884;4.322;2023-01-10T04:50:58;32.83;;;5.20;;
22780;SDS011;11557;50.884;4.322;2023-01-10T04:53:24;30.40;;;5.57;;
22780;SDS011;11557;50.884;4.322;2023-01-10T04:55:49;32.45;;;5.13;;
22780;SDS011;11557;50.884;4.322;2023-01-10T04:58:15;27.98;;;4.55;;
22780;SDS011;11557;50.884;4.322;2023-01-10T05:00:43;22.63;;;4.80;;
22780;SDS011;11557;50.884;4.322;2023-01-10T05:03:08;30.52;;;4.82;;
22780;SDS011;11557;50.884;4.322;2023-01-10T05:05:34;24.30;;;4.55;;
22780;SDS011;11557;50.884;4.322;2023-01-10T05:08:00;34.10;;;4.32;;
22780;SDS011;11557;50.884;4.322;2023-01-10T05:10:25;33.47;;;6.68;;
22780;SDS011;11557;50.884;4.322;2023-01-10T05:12:51;30.50;;;4.68;;
22780;SDS011;11557;50.884;4.322;2023-01-10T05:15:17;25.75;;;4.80;;
22780;SDS011;11557;50.884;4.322;2023-01-10T05:17:45;24.63;;;4.50;;
22780;SDS011;11557;50.884;4.322;2023-01-10T05:20:10;28.42;;;5.00;;
22780;SDS011;11557;50.884;4.322;2023-01-10T05:22:37;33.33;;;5.32;;
22780;SDS011;11557;50.884;4.322;2023-01-10T05:25:03;31.27;;;4.80;;
22780;SDS011;11557;50.884;4.322;2023-01-10T05:27:29;27.33;;;4.13;;
22780;SDS011;11557;50.884;4.322;2023-01-10T05:29:55;30.98;;;4.38;;
22780;SDS011;11557;50.884;4.322;2023-01-10T05:32:20;32.08;;;4.85;;
22780;SDS011;11557;50.884;4.322;2023-01-10T05:34:46;36.05;;;5.15;;
22780;SDS011;11557;50.884;4.322;2023-01-10T05:37:12;32.35;;;4.68;;
22780;SDS011;11557;50.884;4.322;2023-01-10T05:39:38;35.08;;;4.72;;
22780;SDS011;11557;50.884;4.322;2023-01-10T05:42:05;33.33;;;5.03;;
22780;SDS011;11557;50.884;4.322;2023-01-10T05:44:30;32.13;;;4.43;;
22780;SDS011;11557;50.884;4.322;2023-01-10T05:46:56;31.13;;;5.68;;
22780;SDS011;11557;50.884;4.322;2023-01-10T05:49:22;33.40;;;5.32;;
22780;SDS011;11557;50.884;4.322;2023-01-10T05:51:47;34.90;;;4.93;;
22780;SDS011;11557;50.884;4.322;2023-01-10T05:54:13;29.33;;;4.43;;
22780;SDS011;11557;50.884;4.322;2023-01-10T05:56:39;29.90;;;4.93;;
22780;SDS011;11557;50.884;4.322;2023-01-10T05:59:04;40.58;;;7.07;;
22780;SDS011;11557;50.884;4.322;2023-01-10T06:01:30;33.78;;;5.95;;
22780;SDS011;11557;50.884;4.322;2023-01-10T06:03:55;29.08;;;4.70;;
22780;SDS011;11557;50.884;4.322;2023-01-10T06:06:21;31.85;;;4.72;;
22780;SDS011;11557;50.884;4.322;2023-01-10T06:08:47;26.30;;;4.85;;
22780;SDS011;11557;50.884;4.322;2023-01-10T06:11:12;27.75;;;4.75;;
22780;SDS011;11557;50.884;4.322;2023-01-10T06:13:38;27.65;;;4.43;;
22780;SDS011;11557;50.884;4.322;2023-01-10T06:16:04;27.40;;;4.30;;
22780;SDS011;11557;50.884;4.322;2023-01-10T06:18:30;28.55;;;5.10;;
22780;SDS011;11557;50.884;4.322;2023-01-10T06:20:55;22.50;;;4.05;;
22780;SDS011;11557;50.884;4.322;2023-01-10T06:23:21;22.15;;;4.38;;
22780;SDS011;11557;50.884;4.322;2023-01-10T06:25:47;27.48;;;4.63;;
22780;SDS011;11557;50.884;4.322;2023-01-10T06:28:12;27.02;;;3.78;;
22780;SDS011;11557;50.884;4.322;2023-01-10T06:30:39;28.00;;;4.47;;
22780;SDS011;11557;50.884;4.322;2023-01-10T06:33:07;30.15;;;5.05;;
22780;SDS011;11557;50.884;4.322;2023-01-10T06:35:33;23.20;;;4.63;;
22780;SDS011;11557;50.884;4.322;2023-01-10T06:37:59;28.63;;;4.70;;
22780;SDS011;11557;50.884;4.322;2023-01-10T06:40:26;29.33;;;4.50;;
22780;SDS011;11557;50.884;4.322;2023-01-10T06:42:52;36.47;;;5.50;;
22780;SDS011;11557;50.884;4.322;2023-01-10T06:45:17;25.75;;;3.85;;
22780;SDS011;11557;50.884;4.322;2023-01-10T06:48:15;28.55;;;5.28;;
22780;SDS011;11557;50.884;4.322;2023-01-10T06:50:41;29.33;;;4.43;;
22780;SDS011;11557;50.884;4.322;2023-01-10T06:53:07;22.38;;;3.53;;
22780;SDS011;11557;50.884;4.322;2023-01-10T06:55:32;28.20;;;4.20;;
22780;SDS011;11557;50.884;4.322;2023-01-10T06:58:01;23.25;;;4.05;;
22780;SDS011;11557;50.884;4.322;2023-01-10T07:00:28;27.33;;;3.88;;
22780;SDS011;11557;50.884;4.322;2023-01-10T07:02:56;21.50;;;3.90;;
22780;SDS011;11557;50.884;4.322;2023-01-10T07:05:24;27.55;;;4.53;;
22780;SDS011;11557;50.884;4.322;2023-01-10T07:07:50;28.42;;;4.55;;
22780;SDS011;11557;50.884;4.322;2023-01-10T07:10:16;24.05;;;4.55;;
22780;SDS011;11557;50.884;4.322;2023-01-10T07:12:42;26.27;;;4.05;;
22780;SDS011;11557;50.884;4.322;2023-01-10T07:15:08;30.65;;;6.25;;
22780;SDS011;11557;50.884;4.322;2023-01-10T07:17:34;24.63;;;8.25;;
22780;SDS011;11557;50.884;4.322;2023-01-10T07:20:00;42.40;;;5.65;;
22780;SDS011;11557;50.884;4.322;2023-01-10T07:22:25;28.35;;;4.68;;
22780;SDS011;11557;50.884;4.322;2023-01-10T07:24:51;30.75;;;4.55;;
22780;SDS011;11557;50.884;4.322;2023-01-10T07:27:21;25.05;;;5.10;;
22780;SDS011;11557;50.884;4.322;2023-01-10T07:29:46;28.38;;;4.72;;
22780;SDS011;11557;50.884;4.322;2023-01-10T07:32:12;29.35;;;5.47;;
22780;SDS011;11557;50.884;4.322;2023-01-10T07:34:38;31.48;;;5.25;;
22780;SDS011;11557;50.884;4.322;2023-01-10T07:37:03;31.20;;;6.10;;
22780;SDS011;11557;50.884;4.322;2023-01-10T07:39:29;30.75;;;7.00;;
22780;SDS011;11557;50.884;4.322;2023-01-10T07:41:54;22.88;;;4.75;;
22780;SDS011;11557;50.884;4.322;2023-01-10T07:44:20;22.88;;;4.65;;
22780;SDS011;11557;50.884;4.322;2023-01-10T07:46:46;29.00;;;4.78;;
22780;SDS011;11557;50.884;4.322;2023-01-10T07:49:12;20.73;;;4.70;;
22780;SDS011;11557;50.884;4.322;2023-01-10T07:51:38;27.63;;;4.43;;
22780;SDS011;11557;50.884;4.322;2023-01-10T07:54:04;18.90;;;4.43;;
22780;SDS011;11557;50.884;4.322;2023-01-10T07:56:29;24.83;;;4.50;;
22780;SDS011;11557;50.884;4.322;2023-01-10T07:58:55;31.38;;;5.07;;
22780;SDS011;11557;50.884;4.322;2023-01-10T08:01:21;27.17;;;5.70;;
22780;SDS011;11557;50.884;4.322;2023-01-10T08:03:48;26.15;;;4.95;;
22780;SDS011;11557;50.884;4.322;2023-01-10T08:06:14;22.35;;;4.18;;
22780;SDS011;11557;50.884;4.322;2023-01-10T08:08:39;20.10;;;4.32;;
22780;SDS011;11557;50.884;4.322;2023-01-10T08:11:05;37.65;;;5.53;;
22780;SDS011;11557;50.884;4.322;2023-01-10T08:13:31;24.90;;;4.30;;
22780;SDS011;11557;50.884;4.322;2023-01-10T08:15:57;24.67;;;4.63;;
22780;SDS011;11557;50.884;4.322;2023-01-10T08:18:23;18.65;;;4.43;;
22780;SDS011;11557;50.884;4.322;2023-01-10T08:20:49;31.30;;;5.25;;
22780;SDS011;11557;50.884;4.322;2023-01-10T08:23:16;24.85;;;4.75;;
22780;SDS011;11557;50.884;4.322;2023-01-10T08:25:43;28.50;;;5.35;;
22780;SDS011;11557;50.884;4.322;2023-01-10T08:28:09;25.30;;;4.90;;
22780;SDS011;11557;50.884;4.322;2023-01-10T08:30:34;34.75;;;10.55;;
22780;SDS011;11557;50.884;4.322;2023-01-10T08:33:01;29.17;;;4.47;;
22780;SDS011;11557;50.884;4.322;2023-01-10T08:35:27;31.88;;;5.90;;
22780;SDS011;11557;50.884;4.322;2023-01-10T08:37:56;27.48;;;4.95;;
22780;SDS011;11557;50.884;4.322;2023-01-10T08:40:24;23.17;;;4.38;;
22780;SDS011;11557;50.884;4.322;2023-01-10T08:42:59;22.63;;;4.13;;
22780;SDS011;11557;50.884;4.322;2023-01-10T08:45:26;26.45;;;4.22;;
22780;SDS011;11557;50.884;4.322;2023-01-10T08:47:52;26.33;;;5.03;;
22780;SDS011;11557;50.884;4.322;2023-01-10T08:50:18;22.02;;;4.60;;
22780;SDS011;11557;50.884;4.322;2023-01-10T08:52:45;21.60;;;5.10;;
22780;SDS011;11557;50.884;4.322;2023-01-10T08:55:10;23.08;;;4.50;;
22780;SDS011;11557;50.884;4.322;2023-01-10T08:57:36;35.35;;;5.00;;
22780;SDS011;11557;50.884;4.322;2023-01-10T09:00:02;26.02;;;4.80;;
22780;SDS011;11557;50.884;4.322;2023-01-10T09:02:29;21.95;;;4.45;;
22780;SDS011;11557;50.884;4.322;2023-01-10T09:04:54;23.98;;;5.05;;
22780;SDS011;11557;50.884;4.322;2023-01-10T09:07:20;29.75;;;4.75;;
22780;SDS011;11557;50.884;4.322;2023-01-10T09:09:45;28.90;;;5.20;;
22780;SDS011;11557;50.884;4.322;2023-01-10T09:12:11;22.08;;;5.10;;
22780;SDS011;11557;50.884;4.322;2023-01-10T09:14:55;19.42;;;3.65;;
22780;SDS011;11557;50.884;4.322;2023-01-10T09:17:21;26.85;;;5.28;;
22780;SDS011;11557;50.884;4.322;2023-01-10T09:19:46;21.90;;;5.20;;
22780;SDS011;11557;50.884;4.322;2023-01-10T09:22:12;27.35;;;4.97;;
22780;SDS011;11557;50.884;4.322;2023-01-10T09:24:38;24.50;;;4.97;;
22780;SDS011;11557;50.884;4.322;2023-01-10T09:27:05;30.88;;;5.10;;
22780;SDS011;11557;50.884;4.322;2023-01-10T09:29:31;25.80;;;4.93;;
22780;SDS011;11557;50.884;4.322;2023-01-10T09:31:56;26.10;;;5.38;;
22780;SDS011;11557;50.884;4.322;2023-01-10T09:34:22;24.00;;;4.63;;
22780;SDS011;11557;50.884;4.322;2023-01-10T09:36:48;27.20;;;5.13;;
22780;SDS011;11557;50.884;4.322;2023-01-10T09:39:14;18.23;;;4.30;;
22780;SDS011;11557;50.884;4.322;2023-01-10T09:52:46;33.22;;;5.45;;
22780;SDS011;11557;50.884;4.322;2023-01-10T09:57:51;23.58;;;5.05;;
22780;SDS011;11557;50.884;4.322;2023-01-10T10:00:21;25.85;;;5.30;;
22780;SDS011;11557;50.884;4.322;2023-01-10T10:02:51;30.63;;;5.38;;
22780;SDS011;11557;50.884;4.322;2023-01-10T10:07:45;30.33;;;5.63;;
22780;SDS011;11557;50.884;4.322;2023-01-10T10:10:25;27.23;;;5.05;;
22780;SDS011;11557;50.884;4.322;2023-01-10T10:18:39;23.63;;;5.07;;
22780;SDS011;11557;50.884;4.322;2023-01-10T10:21:17;17.33;;;4.05;;
22780;SDS011;11557;50.884;4.322;2023-01-10T10:26:35;25.55;;;5.15;;
22780;SDS011;11557;50.884;4.322;2023-01-10T10:35:02;23.27;;;3.78;;
22780;SDS011;11557;50.884;4.322;2023-01-10T10:37:41;25.83;;;5.00;;
22780;SDS011;11557;50.884;4.322;2023-01-10T10:40:23;17.75;;;4.20;;
22780;SDS011;11557;50.884;4.322;2023-01-10T10:42:53;20.38;;;4.57;;
22780;SDS011;11557;50.884;4.322;2023-01-10T10:50:57;30.63;;;5.45;;
22780;SDS011;11557;50.884;4.322;2023-01-10T10:53:28;16.70;;;3.30;;
22780;SDS011;11557;50.884;4.322;2023-01-10T10:55:56;32.10;;;5.57;;
22780;SDS011;11557;50.884;4.322;2023-01-10T10:58:23;22.60;;;4.32;;
22780;SDS011;11557;50.884;4.322;2023-01-10T11:00:50;22.00;;;4.32;;
22780;SDS011;11557;50.884;4.322;2023-01-10T11:05:50;28.20;;;5.10;;
22780;SDS011;11557;50.884;4.322;2023-01-10T11:08:17;22.08;;;4.65;;
22780;SDS011;11557;50.884;4.322;2023-01-10T11:10:46;22.33;;;4.30;;
22780;SDS011;11557;50.884;4.322;2023-01-10T11:15:57;25.80;;;5.55;;
22780;SDS011;11557;50.884;4.322;2023-01-10T11:18:24;25.05;;;4.82;;
22780;SDS011;11557;50.884;4.322;2023-01-10T11:20:52;19.77;;;4.38;;
22780;SDS011;11557;50.884;4.322;2023-01-10T11:23:30;21.75;;;4.57;;
22780;SDS011;11557;50.884;4.322;2023-01-10T11:29:16;30.52;;;5.13;;
22780;SDS011;11557;50.884;4.322;2023-01-10T11:31:49;26.25;;;4.75;;
22780;SDS011;11557;50.884;4.322;2023-01-10T11:34:25;26.05;;;4.88;;
22780;SDS011;11557;50.884;4.322;2023-01-10T11:36:55;26.70;;;4.63;;
22780;SDS011;11557;50.884;4.322;2023-01-10T11:39:26;26.45;;;4.07;;
22780;SDS011;11557;50.884;4.322;2023-01-10T11:41:53;21.85;;;4.28;;
22780;SDS011;11557;50.884;4.322;2023-01-10T11:46:48;22.48;;;4.70;;
22780;SDS011;11557;50.884;4.322;2023-01-10T11:49:24;36.58;;;6.28;;
22780;SDS011;11557;50.884;4.322;2023-01-10T11:52:01;23.60;;;5.00;;
22780;SDS011;11557;50.884;4.322;2023-01-10T11:54:29;26.33;;;4.63;;
22780;SDS011;11557;50.884;4.322;2023-01-10T11:59:24;29.00;;;4.82;;
22780;SDS011;11557;50.884;4.322;2023-01-10T12:04:38;25.55;;;5.72;;
22780;SDS011;11557;50.884;4.322;2023-01-10T12:07:08;23.08;;;4.32;;
22780;SDS011;11557;50.884;4.322;2023-01-10T12:14:48;19.08;;;4.15;;
22780;SDS011;11557;50.884;4.322;2023-01-10T12:17:27;23.15;;;4.55;;
22780;SDS011;11557;50.884;4.322;2023-01-10T12:19:59;21.90;;;4.15;;
22780;SDS011;11557;50.884;4.322;2023-01-10T12:22:34;20.35;;;3.90;;
22780;SDS011;11557;50.884;4.322;2023-01-10T12:25:05;16.52;;;3.88;;
22780;SDS011;11557;50.884;4.322;2023-01-10T12:27:40;16.90;;;4.07;;
22780;SDS011;11557;50.884;4.322;2023-01-10T12:30:12;22.77;;;4.20;;
22780;SDS011;11557;50.884;4.322;2023-01-10T12:32:43;25.08;;;4.00;;
22780;SDS011;11557;50.884;4.322;2023-01-10T12:35:19;25.40;;;4.22;;
22780;SDS011;11557;50.884;4.322;2023-01-10T12:38:06;21.45;;;4.18;;
22780;SDS011;11557;50.884;4.322;2023-01-10T12:41:14;16.23;;;4.25;;
22780;SDS011;11557;50.884;4.322;2023-01-10T12:44:15;25.45;;;4.28;;
22780;SDS011;11557;50.884;4.322;2023-01-10T12:46:49;26.75;;;4.38;;
22780;SDS011;11557;50.884;4.322;2023-01-10T12:51:53;21.55;;;4.20;;
22780;SDS011;11557;50.884;4.322;2023-01-10T12:54:25;16.52;;;3.75;;
22780;SDS011;11557;50.884;4.322;2023-01-10T12:56:53;25.80;;;4.93;;
22780;SDS011;11557;50.884;4.322;2023-01-10T12:59:28;21.58;;;3.85;;
22780;SDS011;11557;50.884;4.322;2023-01-10T13:02:01;19.70;;;4.50;;
22780;SDS011;11557;50.884;4.322;2023-01-10T13:04:30;21.83;;;5.82;;
22780;SDS011;11557;50.884;4.322;2023-01-10T13:07:00;28.63;;;4.10;;
22780;SDS011;11557;50.884;4.322;2023-01-10T13:09:27;17.83;;;3.85;;
22780;SDS011;11557;50.884;4.322;2023-01-10T13:14:21;21.33;;;3.83;;
22780;SDS011;11557;50.884;4.322;2023-01-10T13:16:55;18.63;;;4.32;;
22780;SDS011;11557;50.884;4.322;2023-01-10T13:19:41;21.58;;;4.95;;
22780;SDS011;11557;50.884;4.322;2023-01-10T13:22:20;22.25;;;6.45;;
22780;SDS011;11557;50.884;4.322;2023-01-10T13:24:57;18.73;;;3.97;;
22780;SDS011;11557;50.884;4.322;2023-01-10T13:27:25;24.48;;;4.20;;
22780;SDS011;11557;50.884;4.322;2023-01-10T13:29:56;23.73;;;4.05;;
22780;SDS011;11557;50.884;4.322;2023-01-10T13:32:32;24.55;;;4.80;;
22780;SDS011;11557;50.884;4.322;2023-01-10T13:35:13;17.20;;;4.00;;
22780;SDS011;11557;50.884;4.322;2023-01-10T13:37:41;18.88;;;4.50;;
22780;SDS011;11557;50.884;4.322;2023-01-10T13:40:16;24.00;;;4.95;;
22780;SDS011;11557;50.884;4.322;2023-01-10T13:42:46;21.45;;;4.82;;
22780;SDS011;11557;50.884;4.322;2023-01-10T13:51:17;22.38;;;4.72;;
22780;SDS011;11557;50.884;4.322;2023-01-10T13:58:57;14.60;;;2.53;;
22780;SDS011;11557;50.884;4.322;2023-01-10T14:01:41;22.10;;;4.65;;
22780;SDS011;11557;50.884;4.322;2023-01-10T14:04:30;18.58;;;4.43;;
22780;SDS011;11557;50.884;4.322;2023-01-10T14:07:02;18.50;;;5.28;;
22780;SDS011;11557;50.884;4.322;2023-01-10T14:09:31;20.67;;;7.65;;
22780;SDS011;11557;50.884;4.322;2023-01-10T14:12:02;26.90;;;9.38;;
22780;SDS011;11557;50.884;4.322;2023-01-10T14:14:49;16.08;;;4.30;;
22780;SDS011;11557;50.884;4.322;2023-01-10T14:19:56;13.55;;;3.30;;
22780;SDS011;11557;50.884;4.322;2023-01-10T14:22:33;12.20;;;3.50;;
22780;SDS011;11557;50.884;4.322;2023-01-10T14:25:02;13.18;;;3.33;;
22780;SDS011;11557;50.884;4.322;2023-01-10T14:27:48;12.98;;;3.65;;
22780;SDS011;11557;50.884;4.322;2023-01-10T14:32:51;17.65;;;4.28;;
22780;SDS011;11557;50.884;4.322;2023-01-10T14:35:20;9.80;;;3.03;;
22780;SDS011;11557;50.884;4.322;2023-01-10T14:37:54;13.75;;;3.70;;
22780;SDS011;11557;50.884;4.322;2023-01-10T14:40:33;10.05;;;3.00;;
22780;SDS011;11557;50.884;4.322;2023-01-10T14:43:05;9.20;;;2.72;;
22780;SDS011;11557;50.884;4.322;2023-01-10T14:45:50;9.88;;;3.17;;
22780;SDS011;11557;50.884;4.322;2023-01-10T14:48:25;13.50;;;5.95;;
22780;SDS011;11557;50.884;4.322;2023-01-10T14:53:58;28.65;;;12.82;;
22780;SDS011;11557;50.884;4.322;2023-01-10T14:56:38;10.65;;;2.40;;
22780;SDS011;11557;50.884;4.322;2023-01-10T14:59:38;10.05;;;3.53;;
22780;SDS011;11557;50.884;4.322;2023-01-10T15:02:20;10.90;;;3.72;;
22780;SDS011;11557;50.884;4.322;2023-01-10T15:04:58;18.58;;;9.52;;
22780;SDS011;11557;50.884;4.322;2023-01-10T15:07:26;16.73;;;11.15;;
22780;SDS011;11557;50.884;4.322;2023-01-10T15:09:53;7.82;;;3.38;;
22780;SDS011;11557;50.884;4.322;2023-01-10T15:12:21;6.50;;;4.40;;
22780;SDS011;11557;50.884;4.322;2023-01-10T15:14:49;6.30;;;3.28;;
22780;SDS011;11557;50.884;4.322;2023-01-10T15:17:24;8.82;;;5.07;;
22780;SDS011;11557;50.884;4.322;2023-01-10T15:19:52;3.50;;;1.77;;
22780;SDS011;11557;50.884;4.322;2023-01-10T15:22:32;2.03;;;1.48;;
22780;SDS011;11557;50.884;4.322;2023-01-10T15:27:49;4.95;;;2.10;;
22780;SDS011;11557;50.884;4.322;2023-01-10T15:30:23;4.03;;;2.80;;
22780;SDS011;11557;50.884;4.322;2023-01-10T15:35:20;3.10;;;1.63;;
22780;SDS011;11557;50.884;4.322;2023-01-10T15:37:50;2.42;;;1.65;;
22780;SDS011;11557;50.884;4.322;2023-01-10T15:40:23;3.95;;;2.00;;
22780;SDS011;11557;50.884;4.322;2023-01-10T15:43:08;2.25;;;1.50;;
22780;SDS011;11557;50.884;4.322;2023-01-10T15:45:36;3.97;;;2.08;;
22780;SDS011;11557;50.884;4.322;2023-01-10T15:48:03;1.92;;;1.40;;
22780;SDS011;11557;50.884;4.322;2023-01-10T15:50:37;3.75;;;2.70;;
22780;SDS011;11557;50.884;4.322;2023-01-10T15:53:17;2.90;;;1.40;;
22780;SDS011;11557;50.884;4.322;2023-01-10T15:55:44;5.28;;;2.63;;
22780;SDS011;11557;50.884;4.322;2023-01-10T16:00:41;2.17;;;1.70;;
22780;SDS011;11557;50.884;4.322;2023-01-10T16:03:21;4.90;;;1.92;;
22780;SDS011;11557;50.884;4.322;2023-01-10T16:05:54;2.75;;;1.95;;
22780;SDS011;11557;50.884;4.322;2023-01-10T16:08:24;2.58;;;1.30;;
22780;SDS011;11557;50.884;4.322;2023-01-10T16:10:55;3.55;;;1.67;;
22780;SDS011;11557;50.884;4.322;2023-01-10T16:13:23;3.10;;;1.48;;
22780;SDS011;11557;50.884;4.322;2023-01-10T16:15:52;3.83;;;1.63;;
22780;SDS011;11557;50.884;4.322;2023-01-10T16:18:22;2.58;;;1.90;;
22780;SDS011;11557;50.884;4.322;2023-01-10T16:20:48;2.90;;;1.65;;
22780;SDS011;11557;50.884;4.322;2023-01-10T16:23:22;6.07;;;3.88;;
22780;SDS011;11557;50.884;4.322;2023-01-10T16:25:55;4.00;;;1.73;;
22780;SDS011;11557;50.884;4.322;2023-01-10T16:28:23;5.88;;;3.35;;
22780;SDS011;11557;50.884;4.322;2023-01-10T16:30:51;5.00;;;3.45;;
22780;SDS011;11557;50.884;4.322;2023-01-10T16:33:18;4.25;;;2.85;;
22780;SDS011;11557;50.884;4.322;2023-01-10T16:35:51;21.42;;;13.77;;
22780;SDS011;11557;50.884;4.322;2023-01-10T16:38:19;4.05;;;1.50;;
22780;SDS011;11557;50.884;4.322;2023-01-10T16:40:46;4.10;;;3.70;;
22780;SDS011;11557;50.884;4.322;2023-01-10T16:43:12;1.30;;;1.20;;
22780;SDS011;11557;50.884;4.322;2023-01-10T16:45:55;3.50;;;3.20;;
22780;SDS011;11557;50.884;4.322;2023-01-10T16:48:26;7.97;;;5.00;;
22780;SDS011;11557;50.884;4.322;2023-01-10T16:50:53;2.85;;;2.65;;
22780;SDS011;11557;50.884;4.322;2023-01-10T16:53:19;2.88;;;2.28;;
22780;SDS011;11557;50.884;4.322;2023-01-10T16:55:49;3.50;;;3.08;;
22780;SDS011;11557;50.884;4.322;2023-01-10T16:58:17;2.20;;;1.88;;
22780;SDS011;11557;50.884;4.322;2023-01-10T17:00:45;3.42;;;1.90;;